Time;durP1;ratioP1;P1;durP2;ratioP2;P2;SDS_P1;SDS_P2;PMS_P1;PMS_P2;Temp;Humidity;BMP_temperature;BMP_pressure;BME280_temperature;BME280_humidity;BME280_pressure;Samples;Min_cycle;Max_cycle;Signal;HPM_P1;HPM_P2
2023/07/12 00:00:31;;;;;;;6.10;2.77;;;;;;;23.11;nan;99139.88;4946443;28;20356;-79
2023/07/12 00:02:57;;;;;;;3.30;2.43;;;;;;;23.14;nan;99134.16;4948081;28;20271;-79
2023/07/12 00:05:26;;;;;;;4.50;2.77;;;;;;;23.15;nan;99127.78;4948544;28;20567;-79
2023/07/12 00:07:51;;;;;;;4.77;3.03;;;;;;;23.07;nan;99107.31;4949157;28;20470;-79
2023/07/12 00:10:23;;;;;;;4.97;4.47;;;;;;;23.01;nan;99107.22;4947702;28;20480;-78
2023/07/12 00:12:49;;;;;;;2.63;2.43;;;;;;;22.94;nan;99099.91;4948330;28;20226;-78
2023/07/12 00:15:19;;;;;;;4.00;3.00;;;;;;;22.94;nan;99088.38;4949411;28;21208;-81
2023/07/12 00:17:44;;;;;;;4.53;3.20;;;;;;;22.96;nan;99075.66;4949634;28;20473;-81
2023/07/12 00:20:28;;;;;;;3.37;3.00;;;;;;;23.02;nan;99071.41;4952040;28;20461;-79
2023/07/12 00:22:54;;;;;;;4.87;2.67;;;;;;;23.08;nan;99067.94;4951188;28;20663;-79
2023/07/12 00:25:21;;;;;;;4.27;2.93;;;;;;;23.06;nan;99057.44;4951325;28;21136;-80
2023/07/12 00:27:48;;;;;;;4.67;2.87;;;;;;;23.05;nan;99055.75;4954552;28;20429;-80
2023/07/12 00:30:15;;;;;;;5.30;2.77;;;;;;;23.02;nan;99061.50;4954443;28;20477;-80
2023/07/12 00:32:41;;;;;;;4.27;3.07;;;;;;;23.04;nan;99080.91;4950261;28;20614;-79
2023/07/12 00:35:07;;;;;;;4.07;3.20;;;;;;;23.08;nan;99082.16;4952698;28;20487;-79
2023/07/12 00:37:32;;;;;;;6.33;3.47;;;;;;;23.09;nan;99065.09;4954376;28;20570;-79
2023/07/12 00:39:58;;;;;;;4.23;3.20;;;;;;;23.12;nan;99062.03;4952919;28;20238;-79
2023/07/12 00:42:33;;;;;;;3.57;3.00;;;;;;;23.16;nan;99070.50;4952464;28;20218;-80
2023/07/12 00:44:59;;;;;;;5.67;3.23;;;;;;;23.18;nan;99068.47;4952002;28;20220;-81
2023/07/12 00:47:25;;;;;;;6.07;3.60;;;;;;;23.21;nan;99062.72;4950123;28;20442;-81
2023/07/12 00:49:53;;;;;;;3.17;2.87;;;;;;;23.24;nan;99072.22;4953545;28;20547;-79
2023/07/12 00:52:20;;;;;;;10.00;3.97;;;;;;;23.29;nan;99069.78;4965458;28;20548;-81
2023/07/12 00:54:54;;;;;;;4.90;3.90;;;;;;;23.30;nan;99060.72;4949522;28;20485;-81
2023/07/12 00:57:21;;;;;;;7.37;4.40;;;;;;;23.28;nan;99054.75;4950167;28;20474;-81
2023/07/12 00:59:47;;;;;;;8.57;4.90;;;;;;;23.26;nan;99046.88;4952197;28;21234;-79
2023/07/12 01:02:14;;;;;;;4.17;3.77;;;;;;;23.20;nan;99047.66;4948199;28;20562;-81
2023/07/12 01:04:44;;;;;;;8.27;4.70;;;;;;;23.17;nan;99056.91;4952300;28;20219;-79
2023/07/12 01:07:10;;;;;;;8.33;3.97;;;;;;;23.15;nan;99060.81;4952954;28;20459;-81
2023/07/12 01:09:35;;;;;;;8.80;4.47;;;;;;;23.09;nan;99061.59;4947621;28;20486;-80
2023/07/12 01:12:01;;;;;;;6.40;4.10;;;;;;;22.93;nan;99057.28;4947235;28;20490;-79
2023/07/12 01:14:27;;;;;;;7.03;3.80;;;;;;;22.85;nan;99054.72;4952529;28;20219;-82
2023/07/12 01:17:02;;;;;;;6.27;3.70;;;;;;;22.83;nan;99046.03;4948226;28;20474;-81
2023/07/12 01:19:29;;;;;;;5.00;3.87;;;;;;;22.86;nan;99046.47;4947127;28;20226;-81
2023/07/12 01:21:55;;;;;;;3.80;2.67;;;;;;;22.93;nan;99041.22;4950443;28;20427;-81
2023/07/12 01:24:22;;;;;;;4.47;2.97;;;;;;;22.99;nan;99035.09;4946177;28;21028;-80
2023/07/12 01:26:51;;;;;;;5.70;3.17;;;;;;;23.04;nan;99031.88;4948592;28;20431;-81
2023/07/12 01:29:16;;;;;;;5.90;3.50;;;;;;;23.09;nan;99046.34;4947873;28;21126;-79
2023/07/12 01:31:43;;;;;;;3.60;3.10;;;;;;;23.14;nan;99056.44;4947885;28;20542;-79
2023/07/12 01:34:10;;;;;;;9.70;4.00;;;;;;;23.17;nan;99051.56;4947709;28;20261;-81
2023/07/12 01:36:36;;;;;;;4.93;3.33;;;;;;;23.19;nan;99056.72;4947754;28;20464;-82
2023/07/12 01:39:04;;;;;;;4.40;3.13;;;;;;;23.22;nan;99053.63;4949256;28;20447;-79
2023/07/12 01:41:30;;;;;;;5.13;3.27;;;;;;;23.23;nan;99035.75;4950157;28;20453;-81
2023/07/12 01:43:56;;;;;;;4.13;3.60;;;;;;;23.22;nan;99029.53;4950015;28;20473;-80
2023/07/12 01:46:21;;;;;;;6.33;4.63;;;;;;;23.22;nan;99045.59;4947404;28;20215;-80
2023/07/12 01:48:47;;;;;;;7.40;3.80;;;;;;;23.23;nan;99041.09;4945919;28;20232;-80
2023/07/12 01:51:13;;;;;;;5.33;4.07;;;;;;;23.25;nan;99039.88;4948587;28;20428;-79
2023/07/12 01:53:39;;;;;;;5.10;4.33;;;;;;;23.27;nan;99032.47;4949715;28;20277;-79
2023/07/12 01:56:05;;;;;;;5.43;4.50;;;;;;;23.27;nan;99023.59;4947141;28;20467;-79
2023/07/12 01:58:31;;;;;;;6.30;3.70;;;;;;;23.25;nan;99007.72;4950056;28;20584;-80
2023/07/12 02:00:58;;;;;;;4.60;3.90;;;;;;;23.18;nan;99002.31;4948591;28;21038;-81
2023/07/12 02:03:23;;;;;;;7.75;4.50;;;;;;;23.10;nan;99005.13;4945563;28;20449;-80
2023/07/12 02:05:49;;;;;;;6.03;4.10;;;;;;;23.10;nan;99013.16;4942895;28;21287;-82
2023/07/12 02:08:17;;;;;;;5.13;3.83;;;;;;;23.07;nan;99005.50;4941752;28;21126;-82
2023/07/12 02:10:45;;;;;;;4.47;3.90;;;;;;;23.05;nan;98996.81;4945701;28;20554;-79
2023/07/12 02:13:10;;;;;;;8.97;3.90;;;;;;;23.00;nan;99012.66;4946919;28;20462;-79
2023/07/12 02:15:36;;;;;;;8.60;5.13;;;;;;;22.98;nan;99009.34;4952177;28;20328;-78
2023/07/12 02:18:05;;;;;;;5.70;4.57;;;;;;;22.99;nan;99015.53;4946096;28;20205;-81
2023/07/12 02:20:30;;;;;;;5.60;4.77;;;;;;;23.01;nan;99022.34;4961196;28;21316;-78
2023/07/12 02:22:56;;;;;;;5.77;4.27;;;;;;;23.04;nan;99024.66;4946374;28;20444;-79
2023/07/12 02:25:22;;;;;;;6.80;4.57;;;;;;;23.08;nan;99020.56;4943777;28;20678;-81
2023/07/12 02:27:48;;;;;;;7.00;5.10;;;;;;;23.10;nan;99015.84;4946419;28;20226;-80
2023/07/12 02:30:18;;;;;;;7.33;4.20;;;;;;;23.10;nan;99002.44;4944635;28;20495;-79
2023/07/12 02:32:44;;;;;;;6.63;3.60;;;;;;;23.05;nan;98996.81;4944257;28;20486;-79
2023/07/12 02:35:10;;;;;;;6.18;4.70;;;;;;;22.97;nan;98996.97;4944576;28;20496;-82
2023/07/12 02:37:36;;;;;;;4.50;3.60;;;;;;;22.89;nan;98997.06;4943969;28;20476;-81
2023/07/12 02:40:07;;;;;;;7.67;4.03;;;;;;;22.86;nan;98994.78;4945355;28;20222;-79
2023/07/12 02:42:33;;;;;;;5.50;4.63;;;;;;;22.85;nan;99003.84;4945793;28;20303;-80
2023/07/12 02:44:58;;;;;;;4.57;4.03;;;;;;;22.87;nan;99010.66;4945022;28;20469;-79
2023/07/12 02:47:24;;;;;;;6.00;5.33;;;;;;;22.95;nan;99009.69;4945115;28;20442;-79
2023/07/12 02:49:49;;;;;;;8.90;4.70;;;;;;;22.99;nan;99002.97;4944336;28;20218;-79
2023/07/12 02:52:15;;;;;;;5.30;4.80;;;;;;;23.02;nan;98999.06;4943953;28;20290;-80
2023/07/12 02:54:41;;;;;;;6.80;4.60;;;;;;;23.03;nan;99003.41;4952034;28;20227;-78
2023/07/12 02:57:08;;;;;;;8.40;4.67;;;;;;;23.04;nan;99007.75;4943043;28;20467;-81
2023/07/12 02:59:33;;;;;;;8.50;4.87;;;;;;;23.09;nan;99008.84;4953252;28;20206;-81
2023/07/12 03:02:00;;;;;;;5.83;5.23;;;;;;;23.14;nan;99016.28;4951589;28;20654;-80
2023/07/12 03:04:25;;;;;;;7.53;4.80;;;;;;;23.16;nan;99036.50;4951186;28;20314;-81
2023/07/12 03:06:51;;;;;;;9.10;5.00;;;;;;;23.22;nan;99044.78;4948542;28;20588;-81
2023/07/12 03:09:16;;;;;;;7.40;4.70;;;;;;;23.24;nan;99048.94;4952085;28;20227;-79
2023/07/12 03:11:48;;;;;;;8.87;4.90;;;;;;;23.26;nan;99041.53;4951500;28;20276;-79
2023/07/12 03:14:16;;;;;;;7.23;4.40;;;;;;;23.28;nan;99038.66;4949790;28;20306;-80
2023/07/12 03:16:41;;;;;;;7.17;4.73;;;;;;;23.28;nan;99047.53;4950876;28;20470;-80
2023/07/12 03:19:07;;;;;;;6.27;4.93;;;;;;;23.31;nan;99049.00;4950101;28;20484;-79
2023/07/12 03:21:32;;;;;;;6.17;4.73;;;;;;;23.33;nan;99047.78;4950215;28;20310;-79
2023/07/12 03:23:58;;;;;;;5.87;4.57;;;;;;;23.34;nan;99049.44;4951691;28;20239;-81
2023/07/12 03:26:23;;;;;;;12.00;4.57;;;;;;;23.34;nan;99053.97;4951638;28;20227;-79
2023/07/12 03:28:52;;;;;;;9.47;4.67;;;;;;;23.34;nan;99060.16;4950748;28;20207;-79
2023/07/12 03:31:17;;;;;;;7.30;4.60;;;;;;;23.35;nan;99060.97;4951500;28;20620;-79
2023/07/12 03:33:45;;;;;;;6.03;4.40;;;;;;;23.35;nan;99063.66;4949970;28;21007;-79
2023/07/12 03:36:11;;;;;;;9.20;4.90;;;;;;;23.36;nan;99073.38;4948014;28;20300;-80
2023/07/12 03:38:37;;;;;;;10.07;5.43;;;;;;;23.39;nan;99078.34;4949070;28;20568;-80
2023/07/12 03:41:04;;;;;;;8.40;5.70;;;;;;;23.44;nan;99086.63;4948542;28;21042;-79
2023/07/12 03:43:31;;;;;;;8.00;5.90;;;;;;;23.48;nan;99092.44;4950624;28;20220;-79
2023/07/12 03:45:57;;;;;;;10.87;7.37;;;;;;;23.50;nan;99109.97;4947350;28;21555;-79
2023/07/12 03:48:23;;;;;;;9.33;6.90;;;;;;;23.51;nan;99114.31;4948660;28;20472;-80
2023/07/12 03:50:51;;;;;;;15.70;7.57;;;;;;;23.53;nan;99120.31;4946935;28;20577;-80
2023/07/12 03:53:17;;;;;;;7.30;6.00;;;;;;;23.54;nan;99113.91;4951843;28;20472;-79
2023/07/12 03:55:45;;;;;;;8.17;6.47;;;;;;;23.54;nan;99124.63;4953409;28;20995;-80
2023/07/12 03:58:13;;;;;;;10.90;6.83;;;;;;;23.55;nan;99136.22;4953687;28;20516;-80
2023/07/12 04:00:43;;;;;;;10.43;7.00;;;;;;;23.55;nan;99142.41;4952456;28;20467;-79
2023/07/12 04:03:11;;;;;;;8.67;5.73;;;;;;;23.57;nan;99144.88;4951599;28;20428;-80
2023/07/12 04:05:38;;;;;;;10.30;6.88;;;;;;;23.58;nan;99158.09;4951203;28;20461;-79
2023/07/12 04:08:04;;;;;;;7.40;6.70;;;;;;;23.60;nan;99149.84;4950640;28;20288;-81
2023/07/12 04:10:30;;;;;;;12.37;6.67;;;;;;;23.61;nan;99160.38;4952797;28;21000;-80
2023/07/12 04:12:55;;;;;;;11.50;6.40;;;;;;;23.62;nan;99164.72;4951308;28;20465;-80
2023/07/12 04:15:21;;;;;;;6.97;5.67;;;;;;;23.63;nan;99166.38;4951767;28;20621;-80
2023/07/12 04:17:46;;;;;;;8.53;6.10;;;;;;;23.63;nan;99166.38;4952340;28;20213;-81
2023/07/12 04:20:13;;;;;;;8.60;6.07;;;;;;;23.63;nan;99171.75;4948815;28;20234;-80
2023/07/12 04:22:38;;;;;;;11.27;5.90;;;;;;;23.64;nan;99178.75;4948662;28;20209;-80
2023/07/12 04:25:04;;;;;;;10.33;5.07;;;;;;;23.65;nan;99176.91;4952978;28;20454;-81
2023/07/12 04:27:30;;;;;;;7.47;6.03;;;;;;;23.67;nan;99185.59;4951560;28;20302;-80
2023/07/12 04:29:55;;;;;;;8.60;5.30;;;;;;;23.69;nan;99182.75;4950757;28;21276;-80
2023/07/12 04:32:20;;;;;;;7.43;6.63;;;;;;;23.68;nan;99176.53;4953509;28;20214;-80
2023/07/12 04:34:47;;;;;;;8.33;7.20;;;;;;;23.68;nan;99167.66;4952773;28;20684;-80
2023/07/12 04:37:12;;;;;;;9.20;6.37;;;;;;;23.69;nan;99175.50;4951062;28;20226;-79
2023/07/12 04:39:38;;;;;;;6.40;5.70;;;;;;;23.68;nan;99168.47;4953107;28;20476;-81
2023/07/12 04:42:03;;;;;;;10.83;6.67;;;;;;;23.70;nan;99176.34;4952619;28;20274;-79
2023/07/12 04:44:29;;;;;;;11.63;6.03;;;;;;;23.70;nan;99184.38;4953900;28;20314;-80
2023/07/12 04:46:55;;;;;;;6.40;5.80;;;;;;;23.72;nan;99182.38;4955141;28;20339;-80
2023/07/12 04:49:20;;;;;;;7.60;6.70;;;;;;;23.73;nan;99186.72;4949193;28;21194;-79
2023/07/12 04:51:46;;;;;;;11.60;6.97;;;;;;;;;;4950859;28;20478;-81
2023/07/12 04:54:11;;;;;;;11.13;5.67;;;;;;;23.76;nan;99197.03;4952290;28;20324;-80
2023/07/12 04:56:36;;;;;;;6.87;5.00;;;;;;;23.77;nan;99178.09;4946811;28;20615;-80
2023/07/12 04:59:02;;;;;;;6.70;5.33;;;;;;;23.80;nan;99171.50;4947904;28;20203;-79
2023/07/12 05:01:28;;;;;;;10.47;5.87;;;;;;;23.83;nan;99171.13;4950850;28;20330;-79
2023/07/12 05:03:53;;;;;;;9.67;5.90;;;;;;;23.86;nan;99162.69;4952233;28;20226;-81
2023/07/12 05:06:19;;;;;;;7.37;5.77;;;;;;;23.88;nan;99157.13;4948653;28;20458;-80
2023/07/12 05:08:44;;;;;;;6.80;6.03;;;;;;;23.91;nan;99162.94;4951628;28;20286;-80
2023/07/12 05:11:10;;;;;;;6.43;5.10;;;;;;;23.91;nan;99170.97;4950834;28;20215;-81
2023/07/12 05:13:35;;;;;;;9.10;6.80;;;;;;;23.95;nan;99169.59;4946140;28;20216;-80
2023/07/12 05:16:01;;;;;;;8.50;6.67;;;;;;;23.99;nan;99178.06;4947041;28;20937;-80
2023/07/12 05:18:27;;;;;;;7.33;5.60;;;;;;;24.00;nan;99187.75;4944108;28;20215;-79
2023/07/12 05:20:52;;;;;;;7.90;6.03;;;;;;;24.03;nan;99184.69;4943356;28;20526;-81
2023/07/12 05:23:21;;;;;;;6.80;5.20;;;;;;;24.06;nan;99178.91;4944497;28;20891;-79
2023/07/12 05:25:48;;;;;;;7.60;5.47;;;;;;;24.08;nan;99179.56;4944232;28;20233;-79
2023/07/12 05:28:14;;;;;;;9.60;6.40;;;;;;;24.10;nan;99182.06;4943916;28;20557;-78
2023/07/12 05:30:40;;;;;;;6.30;4.83;;;;;;;24.15;nan;99177.75;4944427;28;20541;-79
2023/07/12 05:33:05;;;;;;;5.93;5.22;;;;;;;24.15;nan;99169.72;4945427;28;20484;-78
2023/07/12 05:35:31;;;;;;;7.13;5.40;;;;;;;24.19;nan;99180.88;4944767;28;20486;-78
2023/07/12 05:37:56;;;;;;;6.40;4.83;;;;;;;24.22;nan;99177.78;4943827;28;20214;-79
2023/07/12 05:40:21;;;;;;;8.40;5.13;;;;;;;24.23;nan;99176.78;4944904;28;20713;-79
2023/07/12 05:42:47;;;;;;;7.63;5.60;;;;;;;24.26;nan;99173.72;4945705;28;20217;-78
2023/07/12 05:45:15;;;;;;;6.43;5.50;;;;;;;24.28;nan;99167.13;4943658;28;20799;-78
2023/07/12 05:47:42;;;;;;;8.50;5.80;;;;;;;24.32;nan;99170.22;4945688;28;20584;-79
2023/07/12 05:50:11;;;;;;;5.80;5.10;;;;;;;24.35;nan;99179.75;4944818;28;21565;-79
2023/07/12 05:52:37;;;;;;;8.90;5.17;;;;;;;24.36;nan;99178.69;4946670;28;20473;-78
2023/07/12 05:55:05;;;;;;;9.77;6.00;;;;;;;24.36;nan;99179.56;4945770;28;21204;-78
2023/07/12 05:57:31;;;;;;;13.23;7.63;;;;;;;24.37;nan;99175.84;4945235;28;20223;-78
2023/07/12 05:59:56;;;;;;;9.13;6.93;;;;;;;24.39;nan;99181.84;4946347;28;20529;-78
2023/07/12 06:02:23;;;;;;;14.00;6.87;;;;;;;24.42;nan;99175.25;4945740;28;20701;-78
2023/07/12 06:04:49;;;;;;;8.33;6.47;;;;;;;24.47;nan;99178.22;4945769;28;20788;-79
2023/07/12 06:07:14;;;;;;;5.33;4.83;;;;;;;24.51;nan;99172.22;4946266;28;20550;-79
2023/07/12 06:09:40;;;;;;;8.07;5.10;;;;;;;24.58;nan;99169.59;4944925;28;20496;-78
2023/07/12 06:12:06;;;;;;;8.10;5.37;;;;;;;24.62;nan;99164.63;4945880;28;21127;-78
2023/07/12 06:14:32;;;;;;;5.03;4.60;;;;;;;24.70;nan;99169.84;4943025;28;20302;-79
2023/07/12 06:16:57;;;;;;;5.50;4.80;;;;;;;24.80;nan;99170.31;4945372;28;20484;-78
2023/07/12 06:19:22;;;;;;;8.87;5.60;;;;;;;24.95;nan;99165.63;4944508;28;20205;-78
2023/07/12 06:21:48;;;;;;;8.83;6.67;;;;;;;25.16;nan;99169.22;4942936;28;20225;-79
2023/07/12 06:24:13;;;;;;;6.77;5.17;;;;;;;25.27;nan;99167.78;4945554;28;20249;-78
2023/07/12 06:26:39;;;;;;;8.47;5.57;;;;;;;25.36;nan;99161.22;4945799;28;20297;-79
2023/07/12 06:29:04;;;;;;;10.70;5.73;;;;;;;25.45;nan;99165.34;4946144;28;20218;-78
2023/07/12 06:31:30;;;;;;;6.80;5.40;;;;;;;25.51;nan;99163.69;4944906;28;20251;-79
2023/07/12 06:34:00;;;;;;;6.20;5.30;;;;;;;25.60;nan;99157.94;4942628;28;20264;-79
2023/07/12 06:36:26;;;;;;;6.38;5.70;;;;;;;25.98;nan;99145.75;4940139;28;20493;-78
2023/07/12 06:38:51;;;;;;;8.50;5.80;;;;;;;26.46;nan;99156.19;4938752;28;20229;-78
2023/07/12 06:41:16;;;;;;;6.00;4.93;;;;;;;27.04;nan;99152.69;4943160;28;20209;-79
2023/07/12 06:43:42;;;;;;;4.67;4.27;;;;;;;27.62;nan;99157.91;4944461;28;20241;-78
2023/07/12 06:46:07;;;;;;;9.17;5.50;;;;;;;28.20;nan;99162.22;4939997;28;20242;-78
2023/07/12 06:48:33;;;;;;;6.73;5.60;;;;;;;28.65;nan;99152.00;4943579;28;20221;-78
2023/07/12 06:50:58;;;;;;;8.70;5.43;;;;;;;28.83;nan;99153.84;4944374;28;20225;-78
2023/07/12 06:53:26;;;;;;;5.70;5.20;;;;;;;28.98;nan;99160.75;4944420;28;21199;-78
2023/07/12 06:58:33;;;;;;;8.70;5.20;;;;;;;29.06;nan;99150.47;5115801;23;20584;-82
2023/07/12 07:00:59;;;;;;;9.87;8.93;;;;;;;28.90;nan;99153.78;4968907;28;20472;-80
2023/07/12 07:03:25;;;;;;;7.23;5.10;;;;;;;28.73;nan;99161.66;4967040;28;20371;-81
2023/07/12 07:05:51;;;;;;;7.27;4.90;;;;;;;28.83;nan;99161.13;4946696;28;20732;-79
2023/07/12 07:08:19;;;;;;;6.60;5.53;;;;;;;28.87;nan;99160.44;4949241;28;20480;-82
2023/07/12 07:10:50;;;;;;;7.07;5.47;;;;;;;28.99;nan;99160.50;4948680;28;20238;-80
2023/07/12 07:13:15;;;;;;;5.80;5.17;;;;;;;29.14;nan;99154.72;4945908;28;20488;-81
2023/07/12 07:15:41;;;;;;;7.27;4.93;;;;;;;29.22;nan;99157.09;4947879;28;20493;-81
2023/07/12 07:18:08;;;;;;;5.93;4.83;;;;;;;29.39;nan;99169.97;4947900;28;20600;-79
2023/07/12 07:20:33;;;;;;;7.80;5.10;;;;;;;29.58;nan;99162.59;4946684;28;20323;-78
2023/07/12 07:22:59;;;;;;;10.53;5.60;;;;;;;29.60;nan;99160.47;4947566;28;21106;-79
2023/07/12 07:25:27;;;;;;;9.80;5.20;;;;;;;29.37;nan;99163.97;4950445;28;20237;-78
2023/07/12 07:27:53;;;;;;;7.60;5.00;;;;;;;29.17;nan;99165.09;4951358;28;20690;-78
2023/07/12 07:30:18;;;;;;;5.60;4.50;;;;;;;29.19;nan;99171.09;4952064;28;20489;-80
2023/07/12 07:32:44;;;;;;;7.67;4.97;;;;;;;29.27;nan;99176.19;4951880;28;20233;-78
2023/07/12 07:35:11;;;;;;;6.97;5.13;;;;;;;29.21;nan;99184.38;4952872;28;20552;-79
2023/07/12 07:37:37;;;;;;;12.90;6.73;;;;;;;29.03;nan;99183.34;4953931;28;20230;-79
2023/07/12 07:40:03;;;;;;;7.53;4.40;;;;;;;28.88;nan;99172.91;4949919;28;20483;-78
2023/07/12 07:42:28;;;;;;;5.77;5.13;;;;;;;28.84;nan;99179.00;4949326;28;21099;-79
2023/07/12 07:44:54;;;;;;;6.80;4.90;;;;;;;28.87;nan;99179.38;4952554;28;21112;-81
2023/07/12 07:47:20;;;;;;;8.50;5.30;;;;;;;29.02;nan;99184.38;4950686;28;21437;-79
2023/07/12 07:49:45;;;;;;;6.93;4.40;;;;;;;29.05;nan;99188.53;4947965;28;20253;-81
2023/07/12 07:52:13;;;;;;;8.00;4.93;;;;;;;28.94;nan;99183.88;4945561;28;21077;-81
2023/07/12 07:54:39;;;;;;;4.50;4.10;;;;;;;28.99;nan;99187.53;4950325;28;20264;-81
2023/07/12 07:57:06;;;;;;;6.07;4.27;;;;;;;29.28;nan;99195.94;4951916;28;20500;-80
2023/07/12 07:59:31;;;;;;;7.77;5.00;;;;;;;29.56;nan;99198.84;4949261;28;20483;-80
2023/07/12 08:01:57;;;;;;;7.00;4.87;;;;;;;29.85;nan;99190.94;4951667;28;20896;-81
2023/07/12 08:04:23;;;;;;;9.80;6.13;;;;;;;30.30;nan;99201.25;4952256;28;20240;-80
2023/07/12 08:06:50;;;;;;;6.83;4.87;;;;;;;30.77;nan;99203.88;4952745;28;20511;-80
2023/07/12 08:09:16;;;;;;;9.63;6.70;;;;;;;31.12;nan;99210.28;4952138;28;20213;-80
2023/07/12 08:11:42;;;;;;;5.00;3.97;;;;;;;31.40;nan;99207.59;4949454;28;20481;-81
2023/07/12 08:14:08;;;;;;;4.00;3.60;;;;;;;31.66;nan;99208.06;4955068;28;20486;-82
2023/07/12 08:16:35;;;;;;;6.60;4.77;;;;;;;31.87;nan;99204.63;4952433;28;20496;-83
2023/07/12 08:19:03;;;;;;;7.97;4.90;;;;;;;32.09;nan;99201.19;4954962;28;20213;-81
2023/07/12 08:21:29;;;;;;;6.03;4.47;;;;;;;31.98;nan;99207.53;4950340;28;20496;-79
2023/07/12 08:23:55;;;;;;;5.87;3.90;;;;;;;31.63;nan;99220.22;4963981;28;21347;-78
2023/07/12 08:26:21;;;;;;;4.60;4.20;;;;;;;31.12;nan;99219.25;4950391;28;20543;-79
2023/07/12 08:28:46;;;;;;;4.70;3.70;;;;;;;30.70;nan;99226.75;4950093;28;20222;-79
2023/07/12 08:31:12;;;;;;;6.83;4.40;;;;;;;30.32;nan;99228.91;4946987;28;20234;-79
2023/07/12 08:33:38;;;;;;;4.97;3.67;;;;;;;30.06;nan;99235.59;4949466;28;20781;-79
2023/07/12 08:36:03;;;;;;;4.73;4.23;;;;;;;29.83;nan;99230.13;4954798;28;20228;-79
2023/07/12 08:38:31;;;;;;;5.90;4.00;;;;;;;29.57;nan;99232.16;4949630;28;20222;-80
2023/07/12 08:40:57;;;;;;;5.23;4.37;;;;;;;29.39;nan;99234.91;4952280;28;20225;-81
2023/07/12 08:43:30;;;;;;;8.17;4.70;;;;;;;29.19;nan;99230.59;4953522;28;20499;-79
2023/07/12 08:46:08;;;;;;;7.27;4.50;;;;;;;29.02;nan;99234.94;4953369;28;20576;-79
2023/07/12 08:48:34;;;;;;;6.30;4.20;;;;;;;28.87;nan;99235.34;4956447;28;20476;-80
2023/07/12 08:51:00;;;;;;;4.47;3.93;;;;;;;28.85;nan;99232.03;4958663;28;20492;-80
2023/07/12 08:53:33;;;;;;;6.80;4.17;;;;;;;28.80;nan;99235.38;4952962;28;20508;-81
2023/07/12 08:56:02;;;;;;;4.73;4.20;;;;;;;28.71;nan;99239.47;4956890;28;20504;-83
2023/07/12 08:58:41;;;;;;;9.07;4.50;;;;;;;28.61;nan;99233.75;4961656;28;20491;-79
2023/07/12 09:01:11;;;;;;;5.67;4.80;;;;;;;28.49;nan;99244.47;4961470;28;20484;-79
2023/07/12 09:03:36;;;;;;;9.73;4.83;;;;;;;28.39;nan;99239.53;4959567;28;20529;-80
2023/07/12 09:06:12;;;;;;;5.50;4.63;;;;;;;28.31;nan;99233.59;4961210;28;20488;-80
2023/07/12 09:08:42;;;;;;;6.03;4.70;;;;;;;28.24;nan;99234.47;4960166;28;20237;-80
2023/07/12 09:11:18;;;;;;;10.73;5.80;;;;;;;28.25;nan;99238.00;4959939;28;20508;-80
2023/07/12 09:13:46;;;;;;;5.13;4.63;;;;;;;28.24;nan;99234.47;4973670;28;20535;-79
2023/07/12 09:16:45;;;;;;;4.83;4.43;;;;;;;28.20;nan;99233.28;4971481;28;20484;-80
2023/07/12 09:19:23;;;;;;;8.03;4.80;;;;;;;28.15;nan;99234.97;4952570;28;20495;-81
2023/07/12 09:22:28;;;;;;;6.27;4.43;;;;;;;28.11;nan;99240.00;4954873;28;20820;-80
2023/07/12 09:25:01;;;;;;;4.40;4.00;;;;;;;28.18;nan;99231.84;4950635;28;20868;-83
2023/07/12 09:27:28;;;;;;;4.73;4.33;;;;;;;28.24;nan;99230.94;4961167;28;20484;-80
2023/07/12 09:30:05;;;;;;;4.47;4.07;;;;;;;28.32;nan;99227.94;4961017;28;20572;-80
2023/07/12 09:32:33;;;;;;;5.23;4.50;;;;;;;28.44;nan;99225.41;4960816;28;21041;-80
2023/07/12 09:35:04;;;;;;;8.17;4.83;;;;;;;28.62;nan;99221.88;4961416;28;20480;-81
2023/07/12 09:37:36;;;;;;;6.10;3.73;;;;;;;28.80;nan;99221.06;4959026;28;20477;-82
2023/07/12 09:40:17;;;;;;;4.53;4.20;;;;;;;29.22;nan;99216.63;4962159;28;20746;-82
2023/07/12 09:42:55;;;;;;;4.73;4.03;;;;;;;29.73;nan;99209.88;4962225;28;20867;-82
2023/07/12 09:45:29;;;;;;;8.40;4.57;;;;;;;30.27;nan;99209.00;4967702;28;20496;-81
2023/07/12 09:48:05;;;;;;;4.23;3.53;;;;;;;30.77;nan;99212.00;4960079;28;20479;-80
2023/07/12 09:50:43;;;;;;;6.30;4.87;;;;;;;31.10;nan;99196.97;4959817;28;20499;-80
2023/07/12 09:53:40;;;;;;;8.87;4.40;;;;;;;30.99;nan;99205.97;4959451;28;20487;-82
2023/07/12 09:56:29;;;;;;;5.00;4.53;;;;;;;30.74;nan;99206.25;4952313;28;20881;-80
2023/07/12 09:59:03;;;;;;;6.93;4.30;;;;;;;30.59;nan;99204.84;4959480;28;20800;-80
2023/07/12 10:01:40;;;;;;;8.20;4.90;;;;;;;30.50;nan;99198.16;4960509;28;20483;-84
2023/07/12 10:04:30;;;;;;;4.10;3.67;;;;;;;30.47;nan;99203.22;4950651;28;20617;-80
2023/07/12 10:07:03;;;;;;;5.18;4.18;;;;;;;30.51;nan;99212.50;4956511;28;20481;-84
2023/07/12 10:09:35;;;;;;;3.87;3.40;;;;;;;30.51;nan;99213.34;4959677;28;20649;-80
2023/07/12 10:12:13;;;;;;;7.13;4.20;;;;;;;30.42;nan;99209.34;4959687;28;20856;-80
2023/07/12 10:14:42;;;;;;;4.73;4.03;;;;;;;30.23;nan;99208.66;4958732;28;21398;-81
2023/07/12 10:17:39;;;;;;;4.80;4.07;;;;;;;30.06;nan;99197.66;4955348;28;20477;-81
2023/07/12 10:20:13;;;;;;;6.10;4.17;;;;;;;30.02;nan;99207.31;4951722;28;21200;-82
2023/07/12 10:22:41;;;;;;;7.80;4.10;;;;;;;30.03;nan;99200.84;4958917;28;20508;-81
2023/07/12 10:25:30;;;;;;;8.00;4.40;;;;;;;30.14;nan;99199.22;4966163;28;20575;-80
2023/07/12 10:28:21;;;;;;;5.40;3.83;;;;;;;30.29;nan;99204.16;4958396;28;20484;-81
2023/07/12 10:30:55;;;;;;;5.67;4.20;;;;;;;30.48;nan;99202.16;4968229;28;20888;-84
2023/07/12 10:33:32;;;;;;;5.73;4.17;;;;;;;30.42;nan;99190.38;4968667;28;20794;-81
2023/07/12 10:36:15;;;;;;;5.95;4.82;;;;;;;30.35;nan;99181.53;4967342;28;20942;-82
2023/07/12 10:39:01;;;;;;;5.00;4.10;;;;;;;30.55;nan;99178.47;4962932;28;20226;-81
2023/07/12 10:41:39;;;;;;;5.00;4.60;;;;;;;30.83;nan;99180.41;4967307;28;20469;-81
2023/07/12 10:44:27;;;;;;;4.27;3.57;;;;;;;30.86;nan;99179.94;4964052;28;20507;-80
2023/07/12 10:46:57;;;;;;;7.20;4.40;;;;;;;30.89;nan;99173.22;4968993;28;20475;-82
2023/07/12 10:49:58;;;;;;;4.17;3.77;;;;;;;30.84;nan;99182.91;4966205;28;20496;-83
2023/07/12 10:52:30;;;;;;;4.67;4.27;;;;;;;30.71;nan;99180.44;4966831;28;20480;-82
2023/07/12 10:55:34;;;;;;;5.20;4.47;;;;;;;30.55;nan;99178.47;4964313;28;20588;-83
2023/07/12 10:58:29;;;;;;;7.67;3.60;;;;;;;30.42;nan;99177.66;4966327;28;20552;-81
2023/07/12 11:00:58;;;;;;;7.07;4.60;;;;;;;30.40;nan;99176.22;4971876;28;20992;-82
2023/07/12 11:03:51;;;;;;;4.87;3.80;;;;;;;30.49;nan;99174.81;4979086;28;20837;-83
2023/07/12 11:06:23;;;;;;;5.23;4.03;;;;;;;30.70;nan;99176.06;4960345;28;20710;-83
2023/07/12 11:08:59;;;;;;;4.27;3.40;;;;;;;30.96;nan;99158.44;4955707;28;20485;-83
2023/07/12 11:11:30;;;;;;;8.10;4.23;;;;;;;31.27;nan;99164.44;4958174;28;20576;-83
2023/07/12 11:14:45;;;;;;;3.43;3.13;;;;;;;31.56;nan;99159.00;4964881;28;20551;-82
2023/07/12 11:17:25;;;;;;;4.90;3.83;;;;;;;31.69;nan;99151.34;4931752;28;20472;-83
2023/07/12 11:20:23;;;;;;;3.93;3.20;;;;;;;31.85;nan;99154.31;4962264;28;20559;-81
2023/07/12 11:23:21;;;;;;;7.80;3.33;;;;;;;31.94;nan;99150.97;4956256;28;20505;-81
2023/07/12 11:25:49;;;;;;;4.40;3.40;;;;;;;32.06;nan;99156.31;4961318;28;20470;-81
2023/07/12 11:28:28;;;;;;;3.17;2.60;;;;;;;32.23;nan;99158.19;4960052;28;20855;-81
2023/07/12 11:31:05;;;;;;;4.10;2.80;;;;;;;32.24;nan;99152.47;4964518;23;20856;-82
2023/07/12 11:33:33;;;;;;;2.63;2.43;;;;;;;32.17;nan;99155.38;4926475;28;21329;-82
2023/07/12 11:36:09;;;;;;;9.60;2.73;;;;;;;32.20;nan;99162.22;4946932;28;20470;-82
2023/07/12 11:38:36;;;;;;;3.10;2.67;;;;;;;32.18;nan;99154.31;4941978;28;20731;-83
2023/07/12 11:41:15;;;;;;;5.37;2.77;;;;;;;32.12;nan;99163.47;4938982;28;20488;-82
2023/07/12 11:43:41;;;;;;;2.50;2.30;;;;;;;32.04;nan;99157.63;4939778;28;21338;-83
2023/07/12 11:46:28;;;;;;;3.23;2.93;;;;;;;32.03;nan;99161.41;4935552;28;20483;-82
2023/07/12 11:49:16;;;;;;;3.60;2.30;;;;;;;32.04;nan;99163.88;4939493;28;20689;-82
2023/07/12 11:51:46;;;;;;;2.70;2.13;;;;;;;32.14;nan;99158.59;4939231;28;20496;-82
2023/07/12 11:54:37;;;;;;;3.63;2.70;;;;;;;32.20;nan;99161.41;4938334;28;21215;-82
2023/07/12 11:57:05;;;;;;;3.70;2.43;;;;;;;32.19;nan;99160.59;4938803;28;20469;-88
2023/07/12 11:59:36;;;;;;;2.90;2.57;;;;;;;32.20;nan;99155.97;4940579;28;20511;-83
2023/07/12 12:02:05;;;;;;;4.10;3.57;;;;;;;32.25;nan;99154.13;4943159;28;20746;-82
2023/07/12 12:04:31;;;;;;;3.23;2.87;;;;;;;32.25;nan;99151.41;4945568;28;20482;-82